sensor_id;sensor_type;location;lat;lon;timestamp;P1;durP1;ratioP1;P2;durP2;ratioP2
20865;SDS011;10593;48.398;10.698;2023-02-28T00:00:20;3.13;;;2.00;;
20865;SDS011;10593;48.398;10.698;2023-02-28T00:02:47;2.07;;;1.97;;
20865;SDS011;10593;48.398;10.698;2023-02-28T00:05:14;2.17;;;1.97;;
20865;SDS011;10593;48.398;10.698;2023-02-28T00:07:43;3.07;;;2.43;;
20865;SDS011;10593;48.398;10.698;2023-02-28T00:10:11;2.13;;;2.00;;
20865;SDS011;10593;48.398;10.698;2023-02-28T00:12:44;1.80;;;1.70;;
20865;SDS011;10593;48.398;10.698;2023-02-28T00:15:10;2.40;;;2.07;;
20865;SDS011;10593;48.398;10.698;2023-02-28T00:17:36;2.40;;;2.17;;
20865;SDS011;10593;48.398;10.698;2023-02-28T00:20:03;2.20;;;2.00;;
20865;SDS011;10593;48.398;10.698;2023-02-28T00:22:35;2.30;;;2.10;;
20865;SDS011;10593;48.398;10.698;2023-02-28T00:25:02;1.90;;;1.80;;
20865;SDS011;10593;48.398;10.698;2023-02-28T00:27:29;2.43;;;2.20;;
20865;SDS011;10593;48.398;10.698;2023-02-28T00:29:55;2.23;;;2.10;;
20865;SDS011;10593;48.398;10.698;2023-02-28T00:32:21;2.17;;;2.07;;
20865;SDS011;10593;48.398;10.698;2023-02-28T00:34:46;2.43;;;2.23;;
20865;SDS011;10593;48.398;10.698;2023-02-28T00:37:12;2.17;;;2.07;;
20865;SDS011;10593;48.398;10.698;2023-02-28T00:39:38;2.30;;;2.07;;
20865;SDS011;10593;48.398;10.698;2023-02-28T00:42:04;3.07;;;2.30;;
20865;SDS011;10593;48.398;10.698;2023-02-28T00:44:32;2.53;;;2.17;;
20865;SDS011;10593;48.398;10.698;2023-02-28T00:46:58;2.40;;;2.13;;
20865;SDS011;10593;48.398;10.698;2023-02-28T00:49:25;2.77;;;2.47;;
20865;SDS011;10593;48.398;10.698;2023-02-28T00:51:53;2.50;;;2.10;;
20865;SDS011;10593;48.398;10.698;2023-02-28T00:54:20;2.63;;;2.43;;
20865;SDS011;10593;48.398;10.698;2023-02-28T00:56:47;2.53;;;2.30;;
20865;SDS011;10593;48.398;10.698;2023-02-28T00:59:14;2.60;;;2.40;;
20865;SDS011;10593;48.398;10.698;2023-02-28T01:01:41;2.47;;;2.27;;
20865;SDS011;10593;48.398;10.698;2023-02-28T01:04:09;2.60;;;2.40;;
20865;SDS011;10593;48.398;10.698;2023-02-28T01:06:35;2.60;;;2.40;;
20865;SDS011;10593;48.398;10.698;2023-02-28T01:09:02;2.30;;;2.10;;
20865;SDS011;10593;48.398;10.698;2023-02-28T01:11:29;2.30;;;2.10;;
20865;SDS011;10593;48.398;10.698;2023-02-28T01:13:55;2.20;;;2.00;;
20865;SDS011;10593;48.398;10.698;2023-02-28T01:16:20;2.70;;;2.50;;
20865;SDS011;10593;48.398;10.698;2023-02-28T01:18:47;2.50;;;2.30;;
20865;SDS011;10593;48.398;10.698;2023-02-28T01:21:14;2.30;;;2.10;;
20865;SDS011;10593;48.398;10.698;2023-02-28T01:23:42;2.40;;;2.20;;
20865;SDS011;10593;48.398;10.698;2023-02-28T01:26:09;2.40;;;2.20;;
20865;SDS011;10593;48.398;10.698;2023-02-28T01:28:39;2.30;;;2.10;;
20865;SDS011;10593;48.398;10.698;2023-02-28T01:31:05;3.07;;;2.33;;
20865;SDS011;10593;48.398;10.698;2023-02-28T01:33:32;2.37;;;2.17;;
20865;SDS011;10593;48.398;10.698;2023-02-28T01:36:01;2.60;;;2.40;;
20865;SDS011;10593;48.398;10.698;2023-02-28T01:38:30;2.63;;;2.43;;
20865;SDS011;10593;48.398;10.698;2023-02-28T01:40:56;2.73;;;2.53;;
20865;SDS011;10593;48.398;10.698;2023-02-28T01:43:23;2.47;;;2.27;;
20865;SDS011;10593;48.398;10.698;2023-02-28T01:45:53;2.47;;;2.27;;
20865;SDS011;10593;48.398;10.698;2023-02-28T01:48:22;2.97;;;2.77;;
20865;SDS011;10593;48.398;10.698;2023-02-28T01:50:56;2.53;;;2.33;;
20865;SDS011;10593;48.398;10.698;2023-02-28T01:53:29;2.43;;;2.30;;
20865;SDS011;10593;48.398;10.698;2023-02-28T01:56:03;2.40;;;2.20;;
20865;SDS011;10593;48.398;10.698;2023-02-28T01:58:34;2.47;;;2.27;;
20865;SDS011;10593;48.398;10.698;2023-02-28T02:01:02;2.23;;;2.03;;
20865;SDS011;10593;48.398;10.698;2023-02-28T02:03:29;3.27;;;2.60;;
20865;SDS011;10593;48.398;10.698;2023-02-28T02:05:56;2.90;;;2.70;;
20865;SDS011;10593;48.398;10.698;2023-02-28T02:08:25;4.20;;;2.37;;
20865;SDS011;10593;48.398;10.698;2023-02-28T02:10:54;2.57;;;2.37;;
20865;SDS011;10593;48.398;10.698;2023-02-28T02:19:26;2.60;;;2.40;;
20865;SDS011;10593;48.398;10.698;2023-02-28T02:22:21;2.93;;;2.50;;
20865;SDS011;10593;48.398;10.698;2023-02-28T02:25:50;2.13;;;2.03;;
20865;SDS011;10593;48.398;10.698;2023-02-28T02:29:03;2.07;;;1.93;;
20865;SDS011;10593;48.398;10.698;2023-02-28T02:37:40;2.67;;;2.43;;
20865;SDS011;10593;48.398;10.698;2023-02-28T02:42:41;2.20;;;2.10;;
20865;SDS011;10593;48.398;10.698;2023-02-28T02:45:25;2.80;;;2.50;;
20865;SDS011;10593;48.398;10.698;2023-02-28T02:48:07;2.63;;;2.40;;
20865;SDS011;10593;48.398;10.698;2023-02-28T02:50:39;2.50;;;2.30;;
20865;SDS011;10593;48.398;10.698;2023-02-28T02:53:14;2.60;;;2.40;;
20865;SDS011;10593;48.398;10.698;2023-02-28T02:55:47;2.63;;;2.43;;
20865;SDS011;10593;48.398;10.698;2023-02-28T02:58:19;2.73;;;2.27;;
20865;SDS011;10593;48.398;10.698;2023-02-28T03:00:52;2.47;;;2.27;;
20865;SDS011;10593;48.398;10.698;2023-02-28T03:03:24;2.90;;;2.70;;
20865;SDS011;10593;48.398;10.698;2023-02-28T03:05:58;2.40;;;2.17;;
20865;SDS011;10593;48.398;10.698;2023-02-28T03:08:26;2.70;;;2.50;;
20865;SDS011;10593;48.398;10.698;2023-02-28T03:11:00;2.50;;;2.30;;
20865;SDS011;10593;48.398;10.698;2023-02-28T03:33:28;3.03;;;2.80;;
20865;SDS011;10593;48.398;10.698;2023-02-28T03:36:02;4.00;;;2.80;;
20865;SDS011;10593;48.398;10.698;2023-02-28T03:38:51;3.40;;;3.10;;
20865;SDS011;10593;48.398;10.698;2023-02-28T03:42:00;3.23;;;2.93;;
20865;SDS011;10593;48.398;10.698;2023-02-28T03:47:15;3.53;;;3.23;;
20865;SDS011;10593;48.398;10.698;2023-02-28T03:49:49;3.33;;;3.07;;
20865;SDS011;10593;48.398;10.698;2023-02-28T03:52:24;3.40;;;3.10;;
20865;SDS011;10593;48.398;10.698;2023-02-28T03:54:57;4.23;;;3.10;;
20865;SDS011;10593;48.398;10.698;2023-02-28T03:57:39;2.77;;;2.57;;
20865;SDS011;10593;48.398;10.698;2023-02-28T04:00:19;3.20;;;3.00;;
20865;SDS011;10593;48.398;10.698;2023-02-28T04:02:53;3.40;;;3.10;;
20865;SDS011;10593;48.398;10.698;2023-02-28T04:05:20;3.77;;;3.43;;
20865;SDS011;10593;48.398;10.698;2023-02-28T04:07:47;3.57;;;3.27;;
20865;SDS011;10593;48.398;10.698;2023-02-28T04:10:13;3.53;;;3.20;;
20865;SDS011;10593;48.398;10.698;2023-02-28T04:12:41;3.47;;;3.20;;
20865;SDS011;10593;48.398;10.698;2023-02-28T04:15:07;4.23;;;3.17;;
20865;SDS011;10593;48.398;10.698;2023-02-28T04:17:33;3.77;;;3.47;;
20865;SDS011;10593;48.398;10.698;2023-02-28T04:19:59;3.73;;;3.37;;
20865;SDS011;10593;48.398;10.698;2023-02-28T04:22:25;3.80;;;3.50;;
20865;SDS011;10593;48.398;10.698;2023-02-28T04:24:53;3.90;;;3.53;;
20865;SDS011;10593;48.398;10.698;2023-02-28T04:27:19;3.63;;;3.17;;
20865;SDS011;10593;48.398;10.698;2023-02-28T04:29:46;3.60;;;3.30;;
20865;SDS011;10593;48.398;10.698;2023-02-28T04:32:11;3.50;;;3.03;;
20865;SDS011;10593;48.398;10.698;2023-02-28T04:34:38;3.47;;;3.10;;
20865;SDS011;10593;48.398;10.698;2023-02-28T04:37:03;3.67;;;3.37;;
20865;SDS011;10593;48.398;10.698;2023-02-28T04:39:30;3.73;;;3.37;;
20865;SDS011;10593;48.398;10.698;2023-02-28T04:42:00;3.90;;;3.50;;
20865;SDS011;10593;48.398;10.698;2023-02-28T04:44:26;3.40;;;3.10;;
20865;SDS011;10593;48.398;10.698;2023-02-28T04:46:51;5.80;;;3.87;;
20865;SDS011;10593;48.398;10.698;2023-02-28T04:49:17;3.77;;;3.47;;
20865;SDS011;10593;48.398;10.698;2023-02-28T04:51:43;5.10;;;4.10;;
20865;SDS011;10593;48.398;10.698;2023-02-28T04:54:08;4.17;;;3.87;;
20865;SDS011;10593;48.398;10.698;2023-02-28T04:56:34;3.80;;;3.40;;
20865;SDS011;10593;48.398;10.698;2023-02-28T04:59:00;3.90;;;3.60;;
20865;SDS011;10593;48.398;10.698;2023-02-28T05:01:27;3.90;;;3.57;;
20865;SDS011;10593;48.398;10.698;2023-02-28T05:03:56;3.27;;;3.07;;
20865;SDS011;10593;48.398;10.698;2023-02-28T05:06:24;3.73;;;3.43;;
20865;SDS011;10593;48.398;10.698;2023-02-28T05:08:52;3.87;;;3.57;;
20865;SDS011;10593;48.398;10.698;2023-02-28T05:11:23;4.13;;;3.83;;
20865;SDS011;10593;48.398;10.698;2023-02-28T05:13:59;5.20;;;4.10;;
20865;SDS011;10593;48.398;10.698;2023-02-28T05:16:31;4.30;;;3.90;;
20865;SDS011;10593;48.398;10.698;2023-02-28T05:18:57;3.80;;;3.50;;
20865;SDS011;10593;48.398;10.698;2023-02-28T05:21:30;4.17;;;3.87;;
20865;SDS011;10593;48.398;10.698;2023-02-28T05:24:03;4.67;;;4.27;;
20865;SDS011;10593;48.398;10.698;2023-02-28T05:26:39;4.93;;;3.87;;
20865;SDS011;10593;48.398;10.698;2023-02-28T05:29:07;3.90;;;3.50;;
20865;SDS011;10593;48.398;10.698;2023-02-28T05:31:34;3.93;;;3.53;;
20865;SDS011;10593;48.398;10.698;2023-02-28T05:34:00;4.13;;;3.73;;
20865;SDS011;10593;48.398;10.698;2023-02-28T05:36:29;4.13;;;3.73;;
20865;SDS011;10593;48.398;10.698;2023-02-28T05:38:55;3.80;;;3.50;;
20865;SDS011;10593;48.398;10.698;2023-02-28T05:41:21;4.27;;;3.87;;
20865;SDS011;10593;48.398;10.698;2023-02-28T05:43:47;4.53;;;4.10;;
20865;SDS011;10593;48.398;10.698;2023-02-28T05:46:13;4.10;;;3.70;;
20865;SDS011;10593;48.398;10.698;2023-02-28T05:48:40;4.27;;;3.87;;
20865;SDS011;10593;48.398;10.698;2023-02-28T05:51:07;3.97;;;3.67;;
20865;SDS011;10593;48.398;10.698;2023-02-28T05:53:34;4.27;;;3.87;;
20865;SDS011;10593;48.398;10.698;2023-02-28T05:56:01;4.80;;;4.17;;
20865;SDS011;10593;48.398;10.698;2023-02-28T05:58:27;4.20;;;3.80;;
20865;SDS011;10593;48.398;10.698;2023-02-28T06:00:56;4.73;;;4.33;;
20865;SDS011;10593;48.398;10.698;2023-02-28T06:03:23;4.70;;;4.30;;
20865;SDS011;10593;48.398;10.698;2023-02-28T06:05:48;4.67;;;4.27;;
20865;SDS011;10593;48.398;10.698;2023-02-28T06:08:15;5.00;;;4.50;;
20865;SDS011;10593;48.398;10.698;2023-02-28T06:10:41;5.03;;;4.53;;
20865;SDS011;10593;48.398;10.698;2023-02-28T06:13:07;4.73;;;4.27;;
20865;SDS011;10593;48.398;10.698;2023-02-28T06:15:33;4.37;;;4.07;;
20865;SDS011;10593;48.398;10.698;2023-02-28T06:17:59;4.33;;;3.93;;
20865;SDS011;10593;48.398;10.698;2023-02-28T06:20:25;4.17;;;3.77;;
20865;SDS011;10593;48.398;10.698;2023-02-28T06:22:54;4.63;;;4.23;;
20865;SDS011;10593;48.398;10.698;2023-02-28T06:25:23;5.00;;;4.60;;
20865;SDS011;10593;48.398;10.698;2023-02-28T06:27:50;4.50;;;4.10;;
20865;SDS011;10593;48.398;10.698;2023-02-28T06:30:16;4.40;;;4.00;;
20865;SDS011;10593;48.398;10.698;2023-02-28T06:32:42;5.00;;;4.50;;
20865;SDS011;10593;48.398;10.698;2023-02-28T06:35:08;4.77;;;4.10;;
20865;SDS011;10593;48.398;10.698;2023-02-28T06:37:34;4.90;;;4.50;;
20865;SDS011;10593;48.398;10.698;2023-02-28T06:40:00;5.67;;;4.23;;
20865;SDS011;10593;48.398;10.698;2023-02-28T06:42:26;4.60;;;4.20;;
20865;SDS011;10593;48.398;10.698;2023-02-28T06:44:53;5.10;;;4.60;;
20865;SDS011;10593;48.398;10.698;2023-02-28T06:47:20;6.10;;;4.57;;
20865;SDS011;10593;48.398;10.698;2023-02-28T06:49:46;4.60;;;4.20;;
20865;SDS011;10593;48.398;10.698;2023-02-28T06:52:13;5.67;;;5.17;;
20865;SDS011;10593;48.398;10.698;2023-02-28T06:54:39;5.57;;;5.07;;
20865;SDS011;10593;48.398;10.698;2023-02-28T06:57:04;4.40;;;4.00;;
20865;SDS011;10593;48.398;10.698;2023-02-28T06:59:30;4.63;;;4.23;;
20865;SDS011;10593;48.398;10.698;2023-02-28T07:01:56;5.20;;;4.73;;
20865;SDS011;10593;48.398;10.698;2023-02-28T07:04:22;5.67;;;5.20;;
20865;SDS011;10593;48.398;10.698;2023-02-28T07:06:48;5.13;;;4.67;;
20865;SDS011;10593;48.398;10.698;2023-02-28T07:09:13;4.93;;;4.43;;
20865;SDS011;10593;48.398;10.698;2023-02-28T07:11:39;5.10;;;4.70;;
20865;SDS011;10593;48.398;10.698;2023-02-28T07:14:05;5.30;;;4.87;;
20865;SDS011;10593;48.398;10.698;2023-02-28T07:16:32;4.50;;;4.13;;
20865;SDS011;10593;48.398;10.698;2023-02-28T07:18:58;5.07;;;4.63;;
20865;SDS011;10593;48.398;10.698;2023-02-28T07:21:23;5.30;;;4.80;;
20865;SDS011;10593;48.398;10.698;2023-02-28T07:23:49;5.30;;;4.80;;
20865;SDS011;10593;48.398;10.698;2023-02-28T07:26:17;5.13;;;4.63;;
20865;SDS011;10593;48.398;10.698;2023-02-28T07:28:46;4.40;;;4.00;;
20865;SDS011;10593;48.398;10.698;2023-02-28T07:31:13;5.53;;;5.03;;
20865;SDS011;10593;48.398;10.698;2023-02-28T07:33:40;5.17;;;4.77;;
20865;SDS011;10593;48.398;10.698;2023-02-28T07:36:08;6.27;;;5.07;;
20865;SDS011;10593;48.398;10.698;2023-02-28T07:38:40;5.30;;;4.80;;
20865;SDS011;10593;48.398;10.698;2023-02-28T07:41:13;5.30;;;4.90;;
20865;SDS011;10593;48.398;10.698;2023-02-28T07:43:40;5.30;;;4.80;;
20865;SDS011;10593;48.398;10.698;2023-02-28T07:46:08;5.70;;;5.20;;
20865;SDS011;10593;48.398;10.698;2023-02-28T07:48:37;4.83;;;4.43;;
20865;SDS011;10593;48.398;10.698;2023-02-28T07:51:03;5.90;;;5.30;;
20865;SDS011;10593;48.398;10.698;2023-02-28T07:53:29;5.40;;;4.90;;
20865;SDS011;10593;48.398;10.698;2023-02-28T07:55:58;5.00;;;4.50;;
20865;SDS011;10593;48.398;10.698;2023-02-28T07:58:27;5.00;;;4.60;;
20865;SDS011;10593;48.398;10.698;2023-02-28T08:00:54;5.33;;;4.83;;
20865;SDS011;10593;48.398;10.698;2023-02-28T08:03:21;5.80;;;5.20;;
20865;SDS011;10593;48.398;10.698;2023-02-28T08:05:48;5.77;;;5.23;;
20865;SDS011;10593;48.398;10.698;2023-02-28T08:08:15;6.40;;;5.10;;
20865;SDS011;10593;48.398;10.698;2023-02-28T08:10:42;4.70;;;4.30;;
20865;SDS011;10593;48.398;10.698;2023-02-28T08:13:08;5.00;;;4.53;;
20865;SDS011;10593;48.398;10.698;2023-02-28T08:15:34;6.00;;;5.40;;
20865;SDS011;10593;48.398;10.698;2023-02-28T08:18:01;5.63;;;5.00;;
20865;SDS011;10593;48.398;10.698;2023-02-28T08:20:27;5.47;;;4.97;;
20865;SDS011;10593;48.398;10.698;2023-02-28T08:22:52;5.30;;;4.80;;
20865;SDS011;10593;48.398;10.698;2023-02-28T08:25:18;5.33;;;4.90;;
20865;SDS011;10593;48.398;10.698;2023-02-28T08:27:45;5.47;;;4.97;;
20865;SDS011;10593;48.398;10.698;2023-02-28T08:30:11;5.73;;;5.27;;
20865;SDS011;10593;48.398;10.698;2023-02-28T08:32:38;5.20;;;4.80;;
20865;SDS011;10593;48.398;10.698;2023-02-28T08:35:04;5.90;;;5.20;;
20865;SDS011;10593;48.398;10.698;2023-02-28T08:37:31;6.20;;;5.60;;
20865;SDS011;10593;48.398;10.698;2023-02-28T08:39:56;5.43;;;4.93;;
20865;SDS011;10593;48.398;10.698;2023-02-28T08:42:23;5.70;;;5.20;;
20865;SDS011;10593;48.398;10.698;2023-02-28T08:44:49;6.10;;;5.33;;
20865;SDS011;10593;48.398;10.698;2023-02-28T08:47:15;6.13;;;5.53;;
20865;SDS011;10593;48.398;10.698;2023-02-28T08:49:41;8.20;;;7.13;;
20865;SDS011;10593;48.398;10.698;2023-02-28T08:52:06;6.63;;;5.93;;
20865;SDS011;10593;48.398;10.698;2023-02-28T08:54:32;6.30;;;5.70;;
20865;SDS011;10593;48.398;10.698;2023-02-28T08:56:59;6.40;;;5.90;;
20865;SDS011;10593;48.398;10.698;2023-02-28T08:59:24;6.30;;;5.70;;
20865;SDS011;10593;48.398;10.698;2023-02-28T09:01:50;6.20;;;5.63;;
20865;SDS011;10593;48.398;10.698;2023-02-28T09:04:16;5.80;;;5.27;;
20865;SDS011;10593;48.398;10.698;2023-02-28T09:06:41;6.07;;;5.47;;
20865;SDS011;10593;48.398;10.698;2023-02-28T09:09:07;5.97;;;5.37;;
20865;SDS011;10593;48.398;10.698;2023-02-28T09:11:34;5.70;;;5.20;;
20865;SDS011;10593;48.398;10.698;2023-02-28T09:14:00;6.53;;;5.93;;
20865;SDS011;10593;48.398;10.698;2023-02-28T09:16:28;7.63;;;6.40;;
20865;SDS011;10593;48.398;10.698;2023-02-28T09:18:55;6.70;;;6.03;;
20865;SDS011;10593;48.398;10.698;2023-02-28T09:21:22;6.07;;;5.57;;
20865;SDS011;10593;48.398;10.698;2023-02-28T09:23:48;7.07;;;5.90;;
20865;SDS011;10593;48.398;10.698;2023-02-28T09:26:16;7.30;;;6.60;;
20865;SDS011;10593;48.398;10.698;2023-02-28T09:28:47;8.20;;;6.90;;
20865;SDS011;10593;48.398;10.698;2023-02-28T09:31:14;6.53;;;5.87;;
20865;SDS011;10593;48.398;10.698;2023-02-28T09:33:45;6.40;;;5.83;;
20865;SDS011;10593;48.398;10.698;2023-02-28T09:36:15;7.33;;;6.73;;
20865;SDS011;10593;48.398;10.698;2023-02-28T09:38:41;6.87;;;6.27;;
20865;SDS011;10593;48.398;10.698;2023-02-28T09:41:15;6.53;;;5.93;;
20865;SDS011;10593;48.398;10.698;2023-02-28T09:43:48;7.03;;;6.43;;
20865;SDS011;10593;48.398;10.698;2023-02-28T09:49:06;6.90;;;6.23;;
20865;SDS011;10593;48.398;10.698;2023-02-28T09:54:13;6.30;;;5.80;;
20865;SDS011;10593;48.398;10.698;2023-02-28T09:56:50;6.30;;;5.70;;
20865;SDS011;10593;48.398;10.698;2023-02-28T09:59:43;6.77;;;6.10;;
20865;SDS011;10593;48.398;10.698;2023-02-28T10:02:44;6.87;;;6.17;;
20865;SDS011;10593;48.398;10.698;2023-02-28T10:05:30;7.30;;;6.60;;
20865;SDS011;10593;48.398;10.698;2023-02-28T10:08:15;6.63;;;6.03;;
20865;SDS011;10593;48.398;10.698;2023-02-28T10:10:51;7.33;;;6.63;;
20865;SDS011;10593;48.398;10.698;2023-02-28T10:16:41;7.20;;;6.50;;
20865;SDS011;10593;48.398;10.698;2023-02-28T10:19:20;7.30;;;6.60;;
20865;SDS011;10593;48.398;10.698;2023-02-28T10:24:51;6.67;;;6.07;;
20865;SDS011;10593;48.398;10.698;2023-02-28T10:27:24;6.50;;;5.90;;
20865;SDS011;10593;48.398;10.698;2023-02-28T10:29:55;6.80;;;5.97;;
20865;SDS011;10593;48.398;10.698;2023-02-28T10:32:26;6.97;;;5.90;;
20865;SDS011;10593;48.398;10.698;2023-02-28T10:37:37;7.10;;;6.40;;
20865;SDS011;10593;48.398;10.698;2023-02-28T10:43:04;6.27;;;5.73;;
20865;SDS011;10593;48.398;10.698;2023-02-28T10:45:57;6.30;;;5.77;;
20865;SDS011;10593;48.398;10.698;2023-02-28T10:48:48;7.43;;;6.53;;
20865;SDS011;10593;48.398;10.698;2023-02-28T10:51:37;6.27;;;5.67;;
20865;SDS011;10593;48.398;10.698;2023-02-28T10:54:05;6.97;;;6.27;;
20865;SDS011;10593;48.398;10.698;2023-02-28T10:56:40;6.63;;;6.03;;
20865;SDS011;10593;48.398;10.698;2023-02-28T11:01:47;6.20;;;5.60;;
20865;SDS011;10593;48.398;10.698;2023-02-28T11:04:18;6.73;;;6.03;;
20865;SDS011;10593;48.398;10.698;2023-02-28T11:06:47;7.53;;;6.23;;
20865;SDS011;10593;48.398;10.698;2023-02-28T11:12:06;6.93;;;6.23;;
20865;SDS011;10593;48.398;10.698;2023-02-28T11:14:53;7.47;;;6.63;;
20865;SDS011;10593;48.398;10.698;2023-02-28T11:17:28;7.37;;;6.60;;
20865;SDS011;10593;48.398;10.698;2023-02-28T11:20:01;7.10;;;6.40;;
20865;SDS011;10593;48.398;10.698;2023-02-28T11:22:33;6.67;;;6.07;;
20865;SDS011;10593;48.398;10.698;2023-02-28T11:25:09;7.70;;;6.03;;
20865;SDS011;10593;48.398;10.698;2023-02-28T11:27:51;7.40;;;6.63;;
20865;SDS011;10593;48.398;10.698;2023-02-28T11:30:29;12.23;;;11.03;;
20865;SDS011;10593;48.398;10.698;2023-02-28T11:33:22;9.03;;;8.13;;
20865;SDS011;10593;48.398;10.698;2023-02-28T11:35:57;7.83;;;6.60;;
20865;SDS011;10593;48.398;10.698;2023-02-28T11:38:28;6.83;;;6.23;;
20865;SDS011;10593;48.398;10.698;2023-02-28T11:44:04;7.00;;;6.33;;
20865;SDS011;10593;48.398;10.698;2023-02-28T11:46:49;8.13;;;6.57;;
20865;SDS011;10593;48.398;10.698;2023-02-28T11:52:38;6.53;;;5.93;;
20865;SDS011;10593;48.398;10.698;2023-02-28T11:55:21;8.23;;;6.03;;
20865;SDS011;10593;48.398;10.698;2023-02-28T11:58:20;5.90;;;5.40;;
20865;SDS011;10593;48.398;10.698;2023-02-28T12:09:40;8.00;;;7.30;;
20865;SDS011;10593;48.398;10.698;2023-02-28T12:21:17;6.87;;;6.27;;
20865;SDS011;10593;48.398;10.698;2023-02-28T12:24:11;7.80;;;6.97;;
20865;SDS011;10593;48.398;10.698;2023-02-28T12:26:59;7.20;;;6.60;;
20865;SDS011;10593;48.398;10.698;2023-02-28T12:29:38;7.37;;;6.67;;
20865;SDS011;10593;48.398;10.698;2023-02-28T12:32:40;7.20;;;6.60;;
20865;SDS011;10593;48.398;10.698;2023-02-28T12:35:13;7.20;;;6.57;;
20865;SDS011;10593;48.398;10.698;2023-02-28T12:37:50;6.83;;;6.20;;
20865;SDS011;10593;48.398;10.698;2023-02-28T12:40:44;7.73;;;6.23;;
20865;SDS011;10593;48.398;10.698;2023-02-28T12:43:18;6.87;;;6.17;;
20865;SDS011;10593;48.398;10.698;2023-02-28T12:45:51;6.73;;;6.10;;
20865;SDS011;10593;48.398;10.698;2023-02-28T12:48:31;6.47;;;5.97;;
20865;SDS011;10593;48.398;10.698;2023-02-28T12:51:05;7.37;;;6.67;;
20865;SDS011;10593;48.398;10.698;2023-02-28T12:53:49;7.00;;;6.40;;
20865;SDS011;10593;48.398;10.698;2023-02-28T12:56:43;7.60;;;6.90;;
20865;SDS011;10593;48.398;10.698;2023-02-28T12:59:42;8.60;;;6.93;;
20865;SDS011;10593;48.398;10.698;2023-02-28T13:11:06;6.57;;;5.97;;
20865;SDS011;10593;48.398;10.698;2023-02-28T13:13:47;6.53;;;5.93;;
20865;SDS011;10593;48.398;10.698;2023-02-28T13:16:13;6.50;;;5.93;;
20865;SDS011;10593;48.398;10.698;2023-02-28T13:18:40;6.80;;;6.20;;
20865;SDS011;10593;48.398;10.698;2023-02-28T13:21:32;6.27;;;5.67;;
20865;SDS011;10593;48.398;10.698;2023-02-28T13:24:08;7.53;;;6.17;;
20865;SDS011;10593;48.398;10.698;2023-02-28T13:35:34;6.27;;;5.77;;
20865;SDS011;10593;48.398;10.698;2023-02-28T13:47:38;6.73;;;6.03;;
20865;SDS011;10593;48.398;10.698;2023-02-28T13:52:57;6.50;;;5.97;;
20865;SDS011;10593;48.398;10.698;2023-02-28T13:55:42;6.33;;;5.83;;
20865;SDS011;10593;48.398;10.698;2023-02-28T14:07:24;29.03;;;22.23;;
20865;SDS011;10593;48.398;10.698;2023-02-28T14:10:31;33.73;;;21.87;;
20865;SDS011;10593;48.398;10.698;2023-02-28T14:16:16;16.33;;;11.60;;
20865;SDS011;10593;48.398;10.698;2023-02-28T14:18:49;25.03;;;16.50;;
20865;SDS011;10593;48.398;10.698;2023-02-28T14:21:26;24.03;;;15.83;;
20865;SDS011;10593;48.398;10.698;2023-02-28T14:27:11;30.67;;;19.77;;
20865;SDS011;10593;48.398;10.698;2023-02-28T14:35:50;17.00;;;12.07;;
20865;SDS011;10593;48.398;10.698;2023-02-28T14:38:45;8.80;;;7.90;;
20865;SDS011;10593;48.398;10.698;2023-02-28T14:41:28;6.67;;;6.07;;
20865;SDS011;10593;48.398;10.698;2023-02-28T14:44:17;6.27;;;5.67;;
20865;SDS011;10593;48.398;10.698;2023-02-28T14:46:52;6.80;;;6.10;;
20865;SDS011;10593;48.398;10.698;2023-02-28T14:52:02;7.33;;;5.97;;
20865;SDS011;10593;48.398;10.698;2023-02-28T14:54:40;6.03;;;5.43;;
20865;SDS011;10593;48.398;10.698;2023-02-28T14:57:19;6.43;;;5.83;;
20865;SDS011;10593;48.398;10.698;2023-02-28T15:02:38;6.03;;;5.53;;
20865;SDS011;10593;48.398;10.698;2023-02-28T15:07:35;6.10;;;5.50;;
20865;SDS011;10593;48.398;10.698;2023-02-28T15:12:50;6.37;;;5.57;;
20865;SDS011;10593;48.398;10.698;2023-02-28T15:21:21;6.27;;;5.67;;
20865;SDS011;10593;48.398;10.698;2023-02-28T15:23:56;5.47;;;5.07;;
20865;SDS011;10593;48.398;10.698;2023-02-28T15:26:36;6.10;;;5.57;;
20865;SDS011;10593;48.398;10.698;2023-02-28T15:29:15;6.17;;;5.60;;
20865;SDS011;10593;48.398;10.698;2023-02-28T15:31:50;5.80;;;5.30;;
20865;SDS011;10593;48.398;10.698;2023-02-28T15:34:25;5.70;;;5.20;;
20865;SDS011;10593;48.398;10.698;2023-02-28T15:37:06;5.70;;;5.20;;
20865;SDS011;10593;48.398;10.698;2023-02-28T15:39:55;5.43;;;5.00;;
20865;SDS011;10593;48.398;10.698;2023-02-28T15:42:30;5.97;;;5.47;;
20865;SDS011;10593;48.398;10.698;2023-02-28T15:44:56;6.40;;;5.60;;
20865;SDS011;10593;48.398;10.698;2023-02-28T15:47:23;5.87;;;5.40;;
20865;SDS011;10593;48.398;10.698;2023-02-28T15:49:53;6.03;;;5.47;;
20865;SDS011;10593;48.398;10.698;2023-02-28T15:55:11;5.90;;;5.30;;
20865;SDS011;10593;48.398;10.698;2023-02-28T15:57:48;6.20;;;5.70;;
20865;SDS011;10593;48.398;10.698;2023-02-28T16:00:20;5.57;;;5.07;;
20865;SDS011;10593;48.398;10.698;2023-02-28T16:02:49;5.83;;;5.33;;
20865;SDS011;10593;48.398;10.698;2023-02-28T16:07:59;5.47;;;4.97;;
20865;SDS011;10593;48.398;10.698;2023-02-28T16:10:38;5.20;;;4.80;;
20865;SDS011;10593;48.398;10.698;2023-02-28T16:13:04;6.77;;;5.90;;
20865;SDS011;10593;48.398;10.698;2023-02-28T16:15:31;6.00;;;5.50;;
20865;SDS011;10593;48.398;10.698;2023-02-28T16:18:07;5.80;;;5.30;;
20865;SDS011;10593;48.398;10.698;2023-02-28T16:20:37;5.67;;;5.10;;
20865;SDS011;10593;48.398;10.698;2023-02-28T16:23:03;5.87;;;5.37;;
20865;SDS011;10593;48.398;10.698;2023-02-28T16:28:53;10.43;;;7.80;;
20865;SDS011;10593;48.398;10.698;2023-02-28T16:31:16;10.37;;;8.20;;
20865;SDS011;10593;48.398;10.698;2023-02-28T16:33:43;7.47;;;6.33;;
20865;SDS011;10593;48.398;10.698;2023-02-28T16:36:14;7.07;;;6.20;;
20865;SDS011;10593;48.398;10.698;2023-02-28T16:38:43;6.63;;;5.93;;
20865;SDS011;10593;48.398;10.698;2023-02-28T16:41:11;5.83;;;5.23;;
20865;SDS011;10593;48.398;10.698;2023-02-28T16:43:47;5.53;;;5.03;;
20865;SDS011;10593;48.398;10.698;2023-02-28T16:46:17;5.43;;;4.93;;
20865;SDS011;10593;48.398;10.698;2023-02-28T16:48:48;5.73;;;5.23;;
20865;SDS011;10593;48.398;10.698;2023-02-28T16:51:16;5.83;;;5.30;;
20865;SDS011;10593;48.398;10.698;2023-02-28T16:53:50;5.57;;;5.07;;
20865;SDS011;10593;48.398;10.698;2023-02-28T16:56:19;5.40;;;4.90;;
20865;SDS011;10593;48.398;10.698;2023-02-28T16:58:49;5.30;;;4.90;;
20865;SDS011;10593;48.398;10.698;2023-02-28T17:01:19;5.90;;;5.30;;
20865;SDS011;10593;48.398;10.698;2023-02-28T17:03:46;5.70;;;5.20;;
20865;SDS011;10593;48.398;10.698;2023-02-28T17:06:20;5.80;;;5.30;;
20865;SDS011;10593;48.398;10.698;2023-02-28T17:09:14;5.87;;;5.37;;
20865;SDS011;10593;48.398;10.698;2023-02-28T17:11:46;5.33;;;4.83;;
20865;SDS011;10593;48.398;10.698;2023-02-28T17:14:23;5.50;;;5.03;;
20865;SDS011;10593;48.398;10.698;2023-02-28T17:16:48;5.83;;;5.33;;
20865;SDS011;10593;48.398;10.698;2023-02-28T17:19:15;5.30;;;4.80;;
20865;SDS011;10593;48.398;10.698;2023-02-28T17:33:52;5.53;;;5.03;;
20865;SDS011;10593;48.398;10.698;2023-02-28T17:36:24;5.77;;;5.20;;
20865;SDS011;10593;48.398;10.698;2023-02-28T17:38:51;5.97;;;5.40;;
20865;SDS011;10593;48.398;10.698;2023-02-28T17:41:20;5.97;;;5.23;;
20865;SDS011;10593;48.398;10.698;2023-02-28T17:43:46;6.47;;;5.60;;
20865;SDS011;10593;48.398;10.698;2023-02-28T17:46:14;6.07;;;5.57;;
20865;SDS011;10593;48.398;10.698;2023-02-28T17:48:45;6.53;;;5.93;;
20865;SDS011;10593;48.398;10.698;2023-02-28T17:51:14;6.03;;;5.43;;